Zeran (malta) — 9HHJ5 — position and weather

sailwx.info

Track history (hours):
 
Tides and Currents Weather Stations Pressure Air Temp Water Temp Dewpoint Dewpoint Depression Visibility Wind Speed Wind Dir Waves Ship Positions

Zeran (malta)

Last reported at 2015-Jul-04 23:33 UTC. Time now 2015-Jul-05 00:07 UTC.
Position N 40°46' E 013°17'.

Length 148 m; beam 24 m.

Type: Cargo ship. MMSI: 249846000.

Date/timePositionNaut miles runAvg speedWind from/ knotsBaromVisibWave heightAir tempDewpointWater temp
2015-Jul-04 23:33N 40°46' E 013°17'1010.3
2015-Jul-04 22:33N 40°42' E 013°29'1110.3
2015-Jul-04 21:32N 40°38' E 013°42'1010.5
2015-Jul-04 20:33N 40°35' E 013°55'1110.6
2015-Jul-04 19:33N 40°32' E 014°08'1010.2
2015-Jul-04 18:33N 40°31' E 014°22'1010.4
2015-Jul-04 17:33N 40°34' E 014°35'7 0.2
2015-Jul-03 09:16N 40°35' E 014°44'911.0
2015-Jul-03 08:28N 40°26' E 014°45'1011.2
2015-Jul-03 07:33N 40°16' E 014°45'1111.2
2015-Jul-03 06:33N 40°05' E 014°49'5410.7
2015-Jul-03 01:31N 39°15' E 015°16'1110.9
2015-Jul-03 00:33N 39°06' E 015°21'1310.9
2015-Jul-02 23:22N 38°54' E 015°27'1010.7
2015-Jul-02 22:24N 38°44' E 015°32'911.1
2015-Jul-02 21:33N 38°35' E 015°36'1111.0
2015-Jul-02 20:33N 38°25' E 015°41'9 9.4
2015-Jul-02 19:33N 38°15' E 015°41'1110.5
2015-Jul-02 18:33N 38°05' E 015°36'1111.3
2015-Jul-02 17:33N 37°54' E 015°36'1111.1
2015-Jul-02 16:33N 37°43' E 015°35'1111.2
2015-Jul-02 15:33N 37°32' E 015°32'1111.4
2015-Jul-02 14:33N 37°21' E 015°29'1111.2
2015-Jul-02 13:33N 37°10' E 015°28'1111.0
2015-Jul-02 12:33N 36°59' E 015°28'1210.8
2015-Jul-02 11:27N 36°47' E 015°27'910.3
2015-Jul-02 10:33N 36°37' E 015°27'1110.7
2015-Jul-02 09:33N 36°27' E 015°27'1111.1
2015-Jul-02 08:32N 36°16' E 015°27'1111.1
2015-Jul-02 07:33N 36°04' E 015°28'1110.8
2015-Jul-02 06:33N 35°54' E 015°28'1110.6
2015-Jul-02 05:33N 35°43' E 015°28'1110.6
2015-Jul-02 04:33N 35°33' E 015°27'1110.9
2015-Jul-02 03:33N 35°22' E 015°26'1111.3
2015-Jul-02 02:33N 35°10' E 015°26'1111.3
2015-Jul-02 01:33N 34°59' E 015°25'1111.1
2015-Jul-02 00:33N 34°48' E 015°24'1110.9
2015-Jul-01 23:33N 34°37' E 015°24'1110.8
2015-Jul-01 22:33N 34°26' E 015°23'1110.7
2015-Jul-01 21:33N 34°16' E 015°21'1110.6
2015-Jul-01 20:33N 34°05' E 015°20'1110.6
2015-Jul-01 19:33N 33°55' E 015°19'1110.7
2015-Jul-01 18:32N 33°44' E 015°18'1111.0
2015-Jul-01 17:32N 33°33' E 015°17'7110.9
2015-Jul-01 11:05N 32°22' E 015°13'1 0.9
2015-Jul-01 10:31N 32°22' E 015°13'0 0.0
2015-Jul-01 09:31N 32°22' E 015°13'0 0.0
2015-Jun-30 16:13N 32°22' E 015°13'0 0.0
2015-Jun-30 15:28N 32°22' E 015°13'0 0.0
2015-Jun-30 14:31N 32°22' E 015°13'0 0.0
2015-Jun-30 13:31N 32°22' E 015°13'0 0.0
2015-Jun-30 10:31N 32°22' E 015°13'0 0.0
2015-Jun-30 09:25N 32°22' E 015°13'0 0.0
2015-Jun-30 06:04N 32°22' E 015°13'0 0.0
2015-Jun-30 05:28N 32°22' E 015°13'0 0.1
2015-Jun-30 04:33N 32°22' E 015°13'22 9.5
2015-Jun-30 02:16N 32°38' E 014°57'1111.3
2015-Jun-30 01:19N 32°44' E 014°46'910.5
2015-Jun-30 00:28N 32°47' E 014°36'71 9.0
2015-Jun-29 16:34N 32°54' E 013°12'80 3.9
2015-Jun-28 20:06N 34°12' E 012°50'610.3
2015-Jun-28 19:33N 34°18' E 012°49'2110.3
2015-Jun-28 17:33N 34°38' E 012°42'1310.3
2015-Jun-28 16:19N 34°50' E 012°38'810.3
2015-Jun-28 15:33N 34°58' E 012°36'1210.0
2015-Jun-28 14:20N 35°09' E 012°32'810.2
2015-Jun-28 13:33N 35°17' E 012°29'10 9.2
2015-Jun-28 12:29N 35°27' E 012°26'13 9.1
2015-Jun-28 11:05N 35°39' E 012°22'79 9.1
2015-Jun-28 02:20N 36°52' E 011°44'7 9.3
2015-Jun-28 01:32N 36°59' E 011°41'10 9.6
2015-Jun-28 00:32N 37°08' E 011°35'9 9.1
2015-Jun-27 23:33N 37°16' E 011°33'11 9.4
2015-Jun-27 22:23N 37°26' E 011°26'10 9.0
2015-Jun-27 21:16N 37°35' E 011°20'6 8.7
2015-Jun-27 20:33N 37°40' E 011°16'9 8.8
2015-Jun-27 19:33N 37°48' E 011°11'9 8.9
2015-Jun-27 18:33N 37°56' E 011°06'9 9.0
2015-Jun-27 17:33N 38°04' E 011°00'9 9.3
2015-Jun-27 16:33N 38°12' E 010°54'10 9.8
2015-Jun-27 15:33N 38°20' E 010°47'10 9.5
2015-Jun-27 14:30N 38°28' E 010°40'8 8.1
2015-Jun-27 13:33N 38°35' E 010°35'8 6.9
2015-Jun-27 12:21N 38°42' E 010°30'6 6.6
2015-Jun-27 11:29N 38°47' E 010°26'6 6.8
2015-Jun-27 10:33N 38°52' E 010°21'7 7.0
2015-Jun-27 09:33N 38°58' E 010°16'27 6.7
2015-Jun-27 05:29N 39°23' E 010°01'7 7.1
2015-Jun-27 04:32N 39°29' E 010°01'42 7.1
2015-Jun-26 22:33N 40°12' E 009°57'7 6.9
2015-Jun-26 21:33N 40°19' E 009°56'10 9.5
2015-Jun-26 20:33N 40°28' E 009°56'20 9.5
2015-Jun-26 18:30N 40°48' E 009°54'10 9.8
2015-Jun-26 17:30N 40°58' E 009°55'910.0
2015-Jun-26 16:33N 41°07' E 009°55'1010.2
2015-Jun-26 15:33N 41°17' E 009°55'4310.8
2015-Jun-26 11:33N 41°60' E 009°47'1110.9
2015-Jun-26 10:33N 42°11' E 009°46'6710.7
2015-Jun-26 04:13N 43°17' E 009°29'710.2
2015-Jun-26 03:33N 43°23' E 009°26'1010.0
2015-Jun-26 02:33N 43°33' E 009°21'1010.1
2015-Jun-26 01:33N 43°42' E 009°16'1010.5
2015-Jun-26 00:33N 43°52' E 009°10'1110.7
2015-Jun-25 23:33N 44°02' E 009°06'1110.6
2015-Jun-25 22:33N 44°12' E 009°01'1110.7
2015-Jun-25 21:33N 44°22' E 008°57'3 3.3
2015-Jun-25 20:33N 44°24' E 008°53'0 0.0
2015-Jun-25 19:33N 44°24' E 008°53'0 0.0
2015-Jun-25 18:32N 44°24' E 008°53'0 0.0
2015-Jun-25 17:33N 44°24' E 008°53'0 0.0
2015-Jun-25 16:33N 44°24' E 008°53'0 0.0
2015-Jun-25 15:33N 44°24' E 008°53'0 0.0
2015-Jun-25 14:33N 44°24' E 008°53'0 0.0
2015-Jun-25 13:33N 44°24' E 008°53'0 0.0
2015-Jun-25 12:33N 44°24' E 008°53'0 0.0
2015-Jun-25 11:33N 44°24' E 008°53'0 0.0
2015-Jun-25 10:30N 44°24' E 008°53'0 0.0
2015-Jun-25 09:32N 44°24' E 008°53'0 0.0
2015-Jun-25 08:33N 44°24' E 008°53'0 0.0
2015-Jun-25 07:30N 44°24' E 008°53'0 0.0
2015-Jun-25 06:32N 44°24' E 008°53'0 0.0
2015-Jun-25 05:33N 44°24' E 008°53'0 0.0
2015-Jun-25 04:29N 44°24' E 008°53'0 0.0
2015-Jun-25 03:33N 44°24' E 008°53'0 0.0
2015-Jun-25 02:30N 44°24' E 008°53'0 0.0
2015-Jun-25 01:33N 44°24' E 008°53'0 0.0
2015-Jun-25 00:33N 44°24' E 008°53'  
Track history (hours):
 
Tides and Currents Weather Stations Pressure Air Temp Water Temp Dewpoint Dewpoint Depression Visibility Wind Speed Wind Dir Waves Ship Positions

Zeran (malta)

Last reported at 2015-Jul-04 23:33 UTC. Time now 2015-Jul-05 00:07 UTC.
Position N 40°46' E 013°17'.

Length 148 m; beam 24 m.

Type: Cargo ship. MMSI: 249846000.

Date/timePositionNaut miles runAvg speedWind from/ knotsBaromVisibWave heightAir tempDewpointWater temp
2015-Jul-04 23:33N 40°46' E 013°17'1010.3
2015-Jul-04 22:33N 40°42' E 013°29'1110.3
2015-Jul-04 21:32N 40°38' E 013°42'1010.5
2015-Jul-04 20:33N 40°35' E 013°55'1110.6
2015-Jul-04 19:33N 40°32' E 014°08'1010.2
2015-Jul-04 18:33N 40°31' E 014°22'1010.4
2015-Jul-04 17:33N 40°34' E 014°35'7 0.2
2015-Jul-03 09:16N 40°35' E 014°44'911.0
2015-Jul-03 08:28N 40°26' E 014°45'1011.2
2015-Jul-03 07:33N 40°16' E 014°45'1111.2
2015-Jul-03 06:33N 40°05' E 014°49'5410.7
2015-Jul-03 01:31N 39°15' E 015°16'1110.9
2015-Jul-03 00:33N 39°06' E 015°21'1310.9
2015-Jul-02 23:22N 38°54' E 015°27'1010.7
2015-Jul-02 22:24N 38°44' E 015°32'911.1
2015-Jul-02 21:33N 38°35' E 015°36'1111.0
2015-Jul-02 20:33N 38°25' E 015°41'9 9.4
2015-Jul-02 19:33N 38°15' E 015°41'1110.5
2015-Jul-02 18:33N 38°05' E 015°36'1111.3
2015-Jul-02 17:33N 37°54' E 015°36'1111.1
2015-Jul-02 16:33N 37°43' E 015°35'1111.2
2015-Jul-02 15:33N 37°32' E 015°32'1111.4
2015-Jul-02 14:33N 37°21' E 015°29'1111.2
2015-Jul-02 13:33N 37°10' E 015°28'1111.0
2015-Jul-02 12:33N 36°59' E 015°28'1210.8
2015-Jul-02 11:27N 36°47' E 015°27'910.3
2015-Jul-02 10:33N 36°37' E 015°27'1110.7
2015-Jul-02 09:33N 36°27' E 015°27'1111.1
2015-Jul-02 08:32N 36°16' E 015°27'1111.1
2015-Jul-02 07:33N 36°04' E 015°28'1110.8
2015-Jul-02 06:33N 35°54' E 015°28'1110.6
2015-Jul-02 05:33N 35°43' E 015°28'1110.6
2015-Jul-02 04:33N 35°33' E 015°27'1110.9
2015-Jul-02 03:33N 35°22' E 015°26'1111.3
2015-Jul-02 02:33N 35°10' E 015°26'1111.3
2015-Jul-02 01:33N 34°59' E 015°25'1111.1
2015-Jul-02 00:33N 34°48' E 015°24'1110.9
2015-Jul-01 23:33N 34°37' E 015°24'1110.8
2015-Jul-01 22:33N 34°26' E 015°23'1110.7
2015-Jul-01 21:33N 34°16' E 015°21'1110.6
2015-Jul-01 20:33N 34°05' E 015°20'1110.6
2015-Jul-01 19:33N 33°55' E 015°19'1110.7
2015-Jul-01 18:32N 33°44' E 015°18'1111.0
2015-Jul-01 17:32N 33°33' E 015°17'7110.9
2015-Jul-01 11:05N 32°22' E 015°13'1 0.9
2015-Jul-01 10:31N 32°22' E 015°13'0 0.0
2015-Jul-01 09:31N 32°22' E 015°13'0 0.0
2015-Jun-30 16:13N 32°22' E 015°13'0 0.0
2015-Jun-30 15:28N 32°22' E 015°13'0 0.0
2015-Jun-30 14:31N 32°22' E 015°13'0 0.0
2015-Jun-30 13:31N 32°22' E 015°13'0 0.0
2015-Jun-30 10:31N 32°22' E 015°13'0 0.0
2015-Jun-30 09:25N 32°22' E 015°13'0 0.0
2015-Jun-30 06:04N 32°22' E 015°13'0 0.0
2015-Jun-30 05:28N 32°22' E 015°13'0 0.1
2015-Jun-30 04:33N 32°22' E 015°13'22 9.5
2015-Jun-30 02:16N 32°38' E 014°57'1111.3
2015-Jun-30 01:19N 32°44' E 014°46'910.5
2015-Jun-30 00:28N 32°47' E 014°36'71 9.0
2015-Jun-29 16:34N 32°54' E 013°12'80 3.9
2015-Jun-28 20:06N 34°12' E 012°50'610.3
2015-Jun-28 19:33N 34°18' E 012°49'2110.3
2015-Jun-28 17:33N 34°38' E 012°42'1310.3
2015-Jun-28 16:19N 34°50' E 012°38'810.3
2015-Jun-28 15:33N 34°58' E 012°36'1210.0
2015-Jun-28 14:20N 35°09' E 012°32'810.2
2015-Jun-28 13:33N 35°17' E 012°29'10 9.2
2015-Jun-28 12:29N 35°27' E 012°26'13 9.1
2015-Jun-28 11:05N 35°39' E 012°22'79 9.1
2015-Jun-28 02:20N 36°52' E 011°44'7 9.3
2015-Jun-28 01:32N 36°59' E 011°41'10 9.6
2015-Jun-28 00:32N 37°08' E 011°35'9 9.1
2015-Jun-27 23:33N 37°16' E 011°33'11 9.4
2015-Jun-27 22:23N 37°26' E 011°26'10 9.0
2015-Jun-27 21:16N 37°35' E 011°20'6 8.7
2015-Jun-27 20:33N 37°40' E 011°16'9 8.8
2015-Jun-27 19:33N 37°48' E 011°11'9 8.9
2015-Jun-27 18:33N 37°56' E 011°06'9 9.0
2015-Jun-27 17:33N 38°04' E 011°00'9 9.3
2015-Jun-27 16:33N 38°12' E 010°54'10 9.8
2015-Jun-27 15:33N 38°20' E 010°47'10 9.5
2015-Jun-27 14:30N 38°28' E 010°40'8 8.1
2015-Jun-27 13:33N 38°35' E 010°35'8 6.9
2015-Jun-27 12:21N 38°42' E 010°30'6 6.6
2015-Jun-27 11:29N 38°47' E 010°26'6 6.8
2015-Jun-27 10:33N 38°52' E 010°21'7 7.0
2015-Jun-27 09:33N 38°58' E 010°16'27 6.7
2015-Jun-27 05:29N 39°23' E 010°01'7 7.1
2015-Jun-27 04:32N 39°29' E 010°01'42 7.1
2015-Jun-26 22:33N 40°12' E 009°57'7 6.9
2015-Jun-26 21:33N 40°19' E 009°56'10 9.5
2015-Jun-26 20:33N 40°28' E 009°56'20 9.5
2015-Jun-26 18:30N 40°48' E 009°54'10 9.8
2015-Jun-26 17:30N 40°58' E 009°55'910.0
2015-Jun-26 16:33N 41°07' E 009°55'1010.2
2015-Jun-26 15:33N 41°17' E 009°55'4310.8
2015-Jun-26 11:33N 41°60' E 009°47'1110.9
2015-Jun-26 10:33N 42°11' E 009°46'6710.7
2015-Jun-26 04:13N 43°17' E 009°29'710.2
2015-Jun-26 03:33N 43°23' E 009°26'1010.0
2015-Jun-26 02:33N 43°33' E 009°21'1010.1
2015-Jun-26 01:33N 43°42' E 009°16'1010.5
2015-Jun-26 00:33N 43°52' E 009°10'1110.7
2015-Jun-25 23:33N 44°02' E 009°06'1110.6
2015-Jun-25 22:33N 44°12' E 009°01'1110.7
2015-Jun-25 21:33N 44°22' E 008°57'3 3.3
2015-Jun-25 20:33N 44°24' E 008°53'0 0.0
2015-Jun-25 19:33N 44°24' E 008°53'0 0.0
2015-Jun-25 18:32N 44°24' E 008°53'0 0.0
2015-Jun-25 17:33N 44°24' E 008°53'0 0.0
2015-Jun-25 16:33N 44°24' E 008°53'0 0.0
2015-Jun-25 15:33N 44°24' E 008°53'0 0.0
2015-Jun-25 14:33N 44°24' E 008°53'0 0.0
2015-Jun-25 13:33N 44°24' E 008°53'0 0.0
2015-Jun-25 12:33N 44°24' E 008°53'0 0.0
2015-Jun-25 11:33N 44°24' E 008°53'0 0.0
2015-Jun-25 10:30N 44°24' E 008°53'0 0.0
2015-Jun-25 09:32N 44°24' E 008°53'0 0.0
2015-Jun-25 08:33N 44°24' E 008°53'0 0.0
2015-Jun-25 07:30N 44°24' E 008°53'0 0.0
2015-Jun-25 06:32N 44°24' E 008°53'0 0.0
2015-Jun-25 05:33N 44°24' E 008°53'0 0.0
2015-Jun-25 04:29N 44°24' E 008°53'0 0.0
2015-Jun-25 03:33N 44°24' E 008°53'0 0.0
2015-Jun-25 02:30N 44°24' E 008°53'0 0.0
2015-Jun-25 01:33N 44°24' E 008°53'0 0.0
2015-Jun-25 00:33N 44°24' E 008°53'  

Dump ship's entire track history